Time;durP1;ratioP1;P1;durP2;ratioP2;P2;SDS_P1;SDS_P2;PMS_P1;PMS_P2;Temp;Humidity;BMP_temperature;BMP_pressure;BME280_temperature;BME280_humidity;BME280_pressure;Samples;Min_cycle;Max_cycle;Signal;HPM_P1;HPM_P2
2022/09/09 00:00:15;;;;;;;;;;;25.00;45.20;;;;;;1573167;74;1828;-59
2022/09/09 00:02:20;;;;;;;;;;;25.00;45.20;;;;;;1579059;74;755;-60
2022/09/09 00:04:30;;;;;;;;;;;25.00;45.20;;;;;;1583010;74;1598;-60
2022/09/09 00:06:35;;;;;;;;;;;25.00;45.10;;;;;;1561076;74;1847;-60
2022/09/09 00:08:44;;;;;;;;;;;25.10;45.10;;;;;;1548360;74;1678;-60
2022/09/09 00:10:46;;;;;;;;;;;25.00;45.10;;;;;;1563300;74;733;-57
2022/09/09 00:12:49;;;;;;;;;;;25.00;45.10;;;;;;1560837;74;786;-58
2022/09/09 00:15:00;;;;;;;;;;;25.00;45.30;;;;;;1562898;74;1132;-58
2022/09/09 00:17:03;;;;;;;;;;;25.00;45.30;;;;;;1577412;74;1907;-57
2022/09/09 00:19:22;;;;;;;;;;;25.00;45.20;;;;;;1579251;74;1406;-60
2022/09/09 00:21:25;;;;;;;;;;;25.10;45.20;;;;;;1579113;74;591;-59
2022/09/09 00:23:39;;;;;;;;;;;25.00;45.20;;;;;;1567222;74;1137;-61
2022/09/09 00:25:45;;;;;;;;;;;25.00;45.20;;;;;;1567522;74;569;-58
2022/09/09 00:27:50;;;;;;;;;;;25.00;45.20;;;;;;1559173;74;1643;-59
2022/09/09 00:29:53;;;;;;;;;;;25.10;45.20;;;;;;1554716;74;661;-59
2022/09/09 00:31:56;;;;;;;;;;;25.10;45.20;;;;;;1571774;74;1564;-60
2022/09/09 00:33:59;;;;;;;;;;;25.10;45.30;;;;;;1557811;74;1324;-60
2022/09/09 00:36:01;;;;;;;;;;;25.00;45.20;;;;;;1573408;74;1945;-61
2022/09/09 00:38:13;;;;;;;;;;;25.00;45.30;;;;;;1552141;74;785;-61
2022/09/09 00:40:26;;;;;;;;;;;25.10;45.20;;;;;;1554720;74;1279;-60
2022/09/09 00:42:29;;;;;;;;;;;25.10;45.30;;;;;;1547671;74;680;-57
2022/09/09 00:44:35;;;;;;;;;;;25.10;45.30;;;;;;1574766;73;1969;-56
2022/09/09 00:46:55;;;;;;;;;;;25.10;45.30;;;;;;1576204;74;1559;-60
2022/09/09 00:49:05;;;;;;;;;;;25.10;45.30;;;;;;1559327;74;780;-60
2022/09/09 00:51:08;;;;;;;;;;;25.10;45.30;;;;;;1556541;74;782;-60
2022/09/09 00:53:24;;;;;;;;;;;25.10;45.40;;;;;;1578287;74;2011;-56
2022/09/09 00:55:32;;;;;;;;;;;25.10;45.30;;;;;;1582511;74;810;-61
2022/09/09 00:57:34;;;;;;;;;;;25.10;45.40;;;;;;1578273;74;1900;-59
2022/09/09 00:59:44;;;;;;;;;;;25.10;45.40;;;;;;1582276;74;1559;-60
2022/09/09 01:01:46;;;;;;;;;;;25.10;45.40;;;;;;1580106;74;2078;-58
2022/09/09 01:03:49;;;;;;;;;;;25.10;45.40;;;;;;1570803;74;1161;-59
2022/09/09 01:06:08;;;;;;;;;;;25.10;45.40;;;;;;1580146;74;1162;-60
2022/09/09 01:08:11;;;;;;;;;;;25.10;45.40;;;;;;1571266;74;713;-57
2022/09/09 01:10:21;;;;;;;;;;;25.10;45.40;;;;;;1565918;74;2144;-60
2022/09/09 01:12:27;;;;;;;;;;;25.10;45.40;;;;;;1549990;74;1819;-61
2022/09/09 01:14:37;;;;;;;;;;;25.10;45.30;;;;;;1574033;74;1589;-61
2022/09/09 01:16:38;;;;;;;;;;;25.10;45.30;;;;;;1560772;74;1943;-59
2022/09/09 01:18:42;;;;;;;;;;;25.10;45.30;;;;;;1575617;74;735;-61
2022/09/09 01:20:55;;;;;;;;;;;25.10;45.40;;;;;;1556682;74;1912;-58
2022/09/09 01:23:04;;;;;;;;;;;25.10;45.30;;;;;;1580471;74;1857;-59
2022/09/09 01:25:11;;;;;;;;;;;25.10;45.40;;;;;;1572629;74;1949;-56
2022/09/09 01:27:13;;;;;;;;;;;25.00;45.40;;;;;;1566459;74;814;-61
2022/09/09 01:29:16;;;;;;;;;;;25.10;45.30;;;;;;1561620;74;1662;-60
2022/09/09 01:31:19;;;;;;;;;;;25.10;45.40;;;;;;1566880;74;738;-58
2022/09/09 01:33:21;;;;;;;;;;;25.10;45.40;;;;;;1552405;74;1188;-59
2022/09/09 01:35:27;;;;;;;;;;;25.10;45.40;;;;;;1566721;74;809;-61
2022/09/09 01:37:29;;;;;;;;;;;25.10;45.40;;;;;;1554733;74;1938;-60
2022/09/09 01:39:31;;;;;;;;;;;25.10;45.40;;;;;;1558710;74;718;-57
2022/09/09 01:41:33;;;;;;;;;;;25.10;45.40;;;;;;1555611;74;763;-59
2022/09/09 01:43:34;;;;;;;;;;;25.00;45.40;;;;;;1574924;74;1568;-58
2022/09/09 01:45:37;;;;;;;;;;;25.10;45.40;;;;;;1582432;74;830;-57
2022/09/09 01:47:39;;;;;;;;;;;25.10;45.40;;;;;;1553862;74;749;-58
2022/09/09 01:49:40;;;;;;;;;;;25.10;45.50;;;;;;1546599;74;804;-61
2022/09/09 01:51:42;;;;;;;;;;;25.10;45.50;;;;;;1575202;74;745;-61
2022/09/09 01:53:44;;;;;;;;;;;25.00;45.50;;;;;;1572242;74;1124;-61
2022/09/09 01:55:48;;;;;;;;;;;25.10;45.50;;;;;;1571972;74;792;-60
2022/09/09 01:57:51;;;;;;;;;;;25.10;45.50;;;;;;1565091;74;1955;-58
2022/09/09 01:59:55;;;;;;;;;;;25.00;45.50;;;;;;1564487;74;2145;-58
2022/09/09 02:02:05;;;;;;;;;;;25.10;45.50;;;;;;1565227;75;1884;-60
2022/09/09 02:04:08;;;;;;;;;;;25.10;45.40;;;;;;1568538;74;1145;-59
2022/09/09 02:06:20;;;;;;;;;;;25.10;45.50;;;;;;1574847;74;796;-59
2022/09/09 02:08:27;;;;;;;;;;;25.10;45.50;;;;;;1560791;74;709;-60
2022/09/09 02:10:30;;;;;;;;;;;25.10;45.50;;;;;;1567547;74;1353;-56
2022/09/09 02:12:32;;;;;;;;;;;25.10;45.50;;;;;;1573602;74;722;-58
2022/09/09 02:14:38;;;;;;;;;;;25.10;45.50;;;;;;1562869;74;1325;-58
2022/09/09 02:16:47;;;;;;;;;;;25.10;45.50;;;;;;1560435;74;1932;-59
2022/09/09 02:18:50;;;;;;;;;;;25.10;45.50;;;;;;1559566;74;1845;-58
2022/09/09 02:20:52;;;;;;;;;;;25.10;45.50;;;;;;1578041;74;738;-60
2022/09/09 02:22:54;;;;;;;;;;;25.10;45.50;;;;;;1577443;74;786;-61
2022/09/09 02:24:57;;;;;;;;;;;25.10;45.50;;;;;;1576169;74;1399;-60
2022/09/09 02:26:58;;;;;;;;;;;25.10;45.50;;;;;;1572798;74;682;-60
2022/09/09 02:29:02;;;;;;;;;;;25.10;45.50;;;;;;1561460;74;711;-58
2022/09/09 02:31:03;;;;;;;;;;;25.20;45.40;;;;;;1564625;74;679;-60
2022/09/09 02:33:06;;;;;;;;;;;25.10;45.50;;;;;;1561843;74;772;-58
2022/09/09 02:35:09;;;;;;;;;;;25.10;45.50;;;;;;1570652;74;1059;-60
2022/09/09 02:37:11;;;;;;;;;;;25.10;45.50;;;;;;1562080;74;1953;-59
2022/09/09 02:39:13;;;;;;;;;;;25.10;45.50;;;;;;1561770;74;1505;-60
2022/09/09 02:41:15;;;;;;;;;;;25.10;45.50;;;;;;1554069;74;735;-60
2022/09/09 02:43:16;;;;;;;;;;;25.20;45.50;;;;;;1566176;74;1119;-60
2022/09/09 02:45:24;;;;;;;;;;;25.10;45.50;;;;;;1585505;74;683;-59
2022/09/09 02:47:28;;;;;;;;;;;25.10;45.60;;;;;;1572886;74;1828;-59
2022/09/09 02:49:49;;;;;;;;;;;25.10;45.50;;;;;;1566626;74;951;-59
2022/09/09 02:52:00;;;;;;;;;;;25.10;45.40;;;;;;1568511;74;701;-60
2022/09/09 02:54:13;;;;;;;;;;;25.10;45.50;;;;;;1557170;74;1744;-59
2022/09/09 02:56:19;;;;;;;;;;;25.00;45.40;;;;;;1560985;74;892;-57
2022/09/09 02:58:21;;;;;;;;;;;25.10;45.40;;;;;;1550495;74;1896;-58
2022/09/09 03:00:24;;;;;;;;;;;25.10;45.50;;;;;;1564108;74;807;-57
2022/09/09 03:02:26;;;;;;;;;;;25.00;45.40;;;;;;1575997;74;697;-59
2022/09/09 03:04:28;;;;;;;;;;;25.10;45.40;;;;;;1578011;74;1151;-59
2022/09/09 03:06:30;;;;;;;;;;;25.00;45.40;;;;;;1575928;74;1551;-59
2022/09/09 03:08:32;;;;;;;;;;;25.00;45.30;;;;;;1567468;74;761;-58
2022/09/09 03:10:34;;;;;;;;;;;25.10;45.40;;;;;;1568188;74;759;-59
2022/09/09 03:12:36;;;;;;;;;;;25.00;45.40;;;;;;1573256;74;758;-59
2022/09/09 03:14:38;;;;;;;;;;;25.00;45.40;;;;;;1570664;74;1133;-58
2022/09/09 03:16:42;;;;;;;;;;;25.00;45.40;;;;;;1559819;74;691;-59
2022/09/09 03:18:44;;;;;;;;;;;25.00;45.40;;;;;;1571081;74;1914;-58
2022/09/09 03:20:48;;;;;;;;;;;25.00;45.40;;;;;;1571803;74;1509;-59
2022/09/09 03:22:50;;;;;;;;;;;25.00;45.40;;;;;;1573859;74;752;-57
2022/09/09 03:24:52;;;;;;;;;;;25.10;45.40;;;;;;1571616;74;1122;-58
2022/09/09 03:26:55;;;;;;;;;;;25.10;45.50;;;;;;1574014;74;746;-59
2022/09/09 03:28:57;;;;;;;;;;;25.00;45.40;;;;;;1565092;74;771;-57
2022/09/09 03:31:01;;;;;;;;;;;25.00;45.40;;;;;;1571897;74;725;-59
2022/09/09 03:33:03;;;;;;;;;;;25.00;45.40;;;;;;1574510;74;1871;-59
2022/09/09 03:35:05;;;;;;;;;;;25.00;45.40;;;;;;1570281;74;1580;-59
2022/09/09 03:37:07;;;;;;;;;;;25.10;45.40;;;;;;1569231;74;1948;-59
2022/09/09 03:39:09;;;;;;;;;;;25.00;45.50;;;;;;1561125;74;781;-59
2022/09/09 03:41:12;;;;;;;;;;;25.10;45.50;;;;;;1563503;74;822;-59
2022/09/09 03:43:16;;;;;;;;;;;25.10;45.50;;;;;;1569160;74;1134;-59
2022/09/09 03:45:17;;;;;;;;;;;25.10;45.50;;;;;;1578907;74;1759;-58
2022/09/09 03:47:19;;;;;;;;;;;25.10;45.50;;;;;;1584394;74;727;-59
2022/09/09 03:49:22;;;;;;;;;;;25.10;45.50;;;;;;1580652;74;1567;-60
2022/09/09 03:51:24;;;;;;;;;;;25.10;45.50;;;;;;1570396;74;726;-60
2022/09/09 03:53:26;;;;;;;;;;;25.10;45.50;;;;;;1578234;74;1218;-59
2022/09/09 03:55:28;;;;;;;;;;;25.00;45.50;;;;;;1572841;74;701;-59
2022/09/09 03:57:30;;;;;;;;;;;25.10;45.50;;;;;;1560179;74;1920;-59
2022/09/09 03:59:31;;;;;;;;;;;25.10;45.40;;;;;;1573563;74;649;-58
2022/09/09 04:01:33;;;;;;;;;;;25.00;45.40;;;;;;1568791;74;731;-59
2022/09/09 04:03:35;;;;;;;;;;;25.10;45.40;;;;;;1574815;74;1537;-59
2022/09/09 04:05:39;;;;;;;;;;;25.10;45.50;;;;;;1569262;74;798;-60
2022/09/09 04:07:41;;;;;;;;;;;25.00;45.40;;;;;;1551096;74;650;-58
2022/09/09 04:09:43;;;;;;;;;;;25.00;45.40;;;;;;1570386;74;749;-58
2022/09/09 04:11:46;;;;;;;;;;;25.00;45.40;;;;;;1579089;74;737;-60
2022/09/09 04:13:48;;;;;;;;;;;25.00;45.50;;;;;;1571537;74;1146;-59
2022/09/09 04:15:53;;;;;;;;;;;25.00;45.50;;;;;;1572142;74;800;-58
2022/09/09 04:17:55;;;;;;;;;;;25.00;45.50;;;;;;1568697;74;1942;-58
2022/09/09 04:19:57;;;;;;;;;;;25.00;45.50;;;;;;1565363;74;811;-59
2022/09/09 04:21:59;;;;;;;;;;;25.00;45.60;;;;;;1567301;74;727;-59
2022/09/09 04:24:00;;;;;;;;;;;25.00;45.60;;;;;;1567583;74;1152;-59
2022/09/09 04:26:02;;;;;;;;;;;25.00;45.60;;;;;;1580643;74;949;-59
2022/09/09 04:28:04;;;;;;;;;;;24.90;45.60;;;;;;1566235;74;786;-60
2022/09/09 04:30:07;;;;;;;;;;;25.00;45.70;;;;;;1567028;74;779;-58
2022/09/09 04:32:09;;;;;;;;;;;24.90;45.70;;;;;;1575236;74;1493;-59
2022/09/09 04:34:11;;;;;;;;;;;25.00;45.70;;;;;;1576059;74;1164;-58
2022/09/09 04:36:13;;;;;;;;;;;24.90;45.70;;;;;;1579787;74;782;-58
2022/09/09 04:38:15;;;;;;;;;;;24.90;45.70;;;;;;1580904;74;1980;-59
2022/09/09 04:40:17;;;;;;;;;;;24.90;45.70;;;;;;1573779;74;758;-59
2022/09/09 04:42:19;;;;;;;;;;;24.90;45.80;;;;;;1567588;74;779;-59
2022/09/09 04:44:21;;;;;;;;;;;24.90;45.80;;;;;;1565479;74;1095;-60
2022/09/09 04:46:23;;;;;;;;;;;24.90;45.90;;;;;;1576290;74;1524;-59
2022/09/09 04:48:25;;;;;;;;;;;24.90;45.80;;;;;;1570270;74;779;-59
2022/09/09 04:50:28;;;;;;;;;;;25.00;45.90;;;;;;1574434;74;744;-60
2022/09/09 04:52:30;;;;;;;;;;;24.80;45.80;;;;;;1580763;74;824;-60
2022/09/09 04:54:32;;;;;;;;;;;24.90;45.90;;;;;;1559468;73;232559;-64
2022/09/09 04:56:34;;;;;;;;;;;24.90;46.00;;;;;;1539289;77;745;-65
2022/09/09 04:58:36;;;;;;;;;;;24.80;46.00;;;;;;1530902;77;1937;-68
2022/09/09 05:00:38;;;;;;;;;;;24.90;46.00;;;;;;1516477;77;1639;-65
2022/09/09 05:02:42;;;;;;;;;;;24.90;46.00;;;;;;1520217;77;910;-66
2022/09/09 05:04:44;;;;;;;;;;;24.90;46.10;;;;;;1511094;77;1158;-66
2022/09/09 05:06:46;;;;;;;;;;;24.90;46.10;;;;;;1514485;77;805;-64
2022/09/09 05:08:52;;;;;;;;;;;24.90;46.10;;;;;;1518668;77;695;-65
2022/09/09 05:10:51;;;;;;;;;;;24.90;46.10;;;;;;1521823;77;1235;-64
2022/09/09 05:12:54;;;;;;;;;;;24.90;46.10;;;;;;1512345;77;1545;-66
2022/09/09 05:14:56;;;;;;;;;;;24.90;46.20;;;;;;1511486;77;1126;-64
2022/09/09 05:16:57;;;;;;;;;;;24.80;46.00;;;;;;1510264;77;754;-65
2022/09/09 05:18:59;;;;;;;;;;;24.90;46.20;;;;;;1518638;77;1905;-66
2022/09/09 05:21:01;;;;;;;;;;;24.90;46.20;;;;;;1520002;77;808;-68
2022/09/09 05:23:03;;;;;;;;;;;25.00;46.20;;;;;;1518005;77;729;-66
2022/09/09 05:25:05;;;;;;;;;;;25.00;46.20;;;;;;1514189;75;1144;-67
2022/09/09 05:27:07;;;;;;;;;;;25.00;46.20;;;;;;1530504;77;1549;-66
2022/09/09 05:29:09;;;;;;;;;;;24.90;46.20;;;;;;1522422;77;741;-66
2022/09/09 05:31:12;;;;;;;;;;;24.90;46.20;;;;;;1509050;77;775;-65
2022/09/09 05:33:14;;;;;;;;;;;25.00;46.10;;;;;;1509678;77;714;-65
2022/09/09 05:35:17;;;;;;;;;;;25.00;46.20;;;;;;1511697;77;1155;-65
2022/09/09 05:37:19;;;;;;;;;;;25.00;46.20;;;;;;1506165;77;801;-66
2022/09/09 05:39:21;;;;;;;;;;;24.90;46.20;;;;;;1513141;77;1950;-65
2022/09/09 05:41:23;;;;;;;;;;;25.00;46.20;;;;;;1505834;77;1567;-66
2022/09/09 05:43:25;;;;;;;;;;;25.00;46.20;;;;;;1504635;77;791;-64
2022/09/09 05:45:27;;;;;;;;;;;24.90;46.10;;;;;;1502737;77;1158;-64
2022/09/09 05:47:29;;;;;;;;;;;24.80;46.10;;;;;;1503968;77;805;-65
2022/09/09 05:49:31;;;;;;;;;;;24.90;46.10;;;;;;1508613;77;745;-66
2022/09/09 05:51:33;;;;;;;;;;;24.90;46.20;;;;;;1501207;77;727;-64
2022/09/09 05:53:35;;;;;;;;;;;24.90;46.20;;;;;;1514691;77;751;-65
2022/09/09 05:55:37;;;;;;;;;;;25.00;46.20;;;;;;1504304;77;1466;-66
2022/09/09 05:57:39;;;;;;;;;;;24.90;46.20;;;;;;1509793;77;715;-65
2022/09/09 05:59:41;;;;;;;;;;;24.80;46.10;;;;;;1511495;77;1936;-65
2022/09/09 06:01:43;;;;;;;;;;;24.90;46.20;;;;;;1507219;77;762;-66
2022/09/09 06:03:45;;;;;;;;;;;24.90;46.20;;;;;;1509251;77;1178;-65
2022/09/09 06:05:47;;;;;;;;;;;24.90;46.20;;;;;;1512254;77;750;-66
2022/09/09 06:07:51;;;;;;;;;;;24.80;46.20;;;;;;1507034;77;737;-67
2022/09/09 06:09:53;;;;;;;;;;;25.00;46.40;;;;;;1508128;77;2012;-66
2022/09/09 06:11:55;;;;;;;;;;;25.00;46.30;;;;;;1499664;77;794;-67
2022/09/09 06:13:57;;;;;;;;;;;25.00;46.20;;;;;;1509217;77;1176;-67
2022/09/09 06:15:59;;;;;;;;;;;25.10;46.10;;;;;;1505539;77;705;-67
2022/09/09 06:18:01;;;;;;;;;;;24.90;46.10;;;;;;1499642;77;1927;-67
2022/09/09 06:20:04;;;;;;;;;;;25.00;46.00;;;;;;1505877;77;732;-67
2022/09/09 06:22:06;;;;;;;;;;;24.90;46.00;;;;;;1500435;77;736;-67
2022/09/09 06:24:08;;;;;;;;;;;25.00;46.10;;;;;;1511231;77;1541;-66
2022/09/09 06:26:14;;;;;;;;;;;25.00;46.10;;;;;;1505904;77;753;-66
2022/09/09 06:28:16;;;;;;;;;;;25.00;46.10;;;;;;1505841;77;1110;-66
2022/09/09 06:30:17;;;;;;;;;;;25.00;46.10;;;;;;1505416;77;786;-66
2022/09/09 06:32:19;;;;;;;;;;;24.90;46.00;;;;;;1502827;77;934;-66
2022/09/09 06:34:21;;;;;;;;;;;24.90;46.10;;;;;;1513271;77;1136;-66
2022/09/09 06:36:24;;;;;;;;;;;24.90;46.10;;;;;;1507420;77;816;-70
2022/09/09 06:38:26;;;;;;;;;;;25.00;46.00;;;;;;1502729;77;1929;-67
2022/09/09 06:40:27;;;;;;;;;;;24.90;46.00;;;;;;1506639;77;766;-68
2022/09/09 06:42:29;;;;;;;;;;;24.90;46.00;;;;;;1504885;77;787;-64
2022/09/09 06:44:31;;;;;;;;;;;24.90;46.00;;;;;;1522710;77;1196;-66
2022/09/09 06:46:35;;;;;;;;;;;25.00;46.00;;;;;;1518206;77;750;-66
2022/09/09 06:48:37;;;;;;;;;;;25.00;46.00;;;;;;1517367;77;766;-67
2022/09/09 06:50:39;;;;;;;;;;;24.90;46.00;;;;;;1516109;77;765;-66
2022/09/09 06:52:41;;;;;;;;;;;25.00;46.00;;;;;;1519444;77;1596;-67
2022/09/09 06:54:43;;;;;;;;;;;25.00;46.00;;;;;;1525796;77;1139;-67
2022/09/09 06:56:45;;;;;;;;;;;24.90;46.00;;;;;;1509639;77;804;-68
2022/09/09 06:58:46;;;;;;;;;;;25.00;46.00;;;;;;1517994;77;1905;-65
2022/09/09 07:00:49;;;;;;;;;;;24.90;45.90;;;;;;1516470;77;816;-67
2022/09/09 07:02:51;;;;;;;;;;;25.00;45.90;;;;;;1519650;77;743;-70
2022/09/09 07:04:53;;;;;;;;;;;24.90;45.90;;;;;;1515787;77;1185;-69
2022/09/09 07:06:55;;;;;;;;;;;25.00;45.90;;;;;;1512752;77;1563;-67
2022/09/09 07:08:58;;;;;;;;;;;25.00;45.90;;;;;;1508482;77;749;-67
2022/09/09 07:11:04;;;;;;;;;;;25.00;45.90;;;;;;1504033;77;1062;-67
2022/09/09 07:13:07;;;;;;;;;;;25.00;45.90;;;;;;1512049;77;725;-67
2022/09/09 07:15:09;;;;;;;;;;;25.00;45.90;;;;;;1511718;75;1137;-67
2022/09/09 07:17:11;;;;;;;;;;;24.90;45.80;;;;;;1500138;77;891;-68
2022/09/09 07:19:14;;;;;;;;;;;25.00;45.80;;;;;;1499600;77;1946;-66
2022/09/09 07:21:16;;;;;;;;;;;25.00;45.80;;;;;;1506795;77;1774;-65
2022/09/09 07:23:18;;;;;;;;;;;25.00;45.80;;;;;;1508181;77;798;-67
2022/09/09 07:25:20;;;;;;;;;;;25.00;45.80;;;;;;1509036;77;1139;-68
2022/09/09 07:27:22;;;;;;;;;;;24.90;45.80;;;;;;1506335;77;788;-66
2022/09/09 07:29:24;;;;;;;;;;;24.90;45.90;;;;;;1517785;77;763;-67
2022/09/09 07:31:34;;;;;;;;;;;24.90;45.90;;;;;;1509716;77;774;-67
2022/09/09 07:33:33;;;;;;;;;;;24.90;46.00;;;;;;1515655;77;1597;-67
2022/09/09 07:35:36;;;;;;;;;;;24.90;46.00;;;;;;1510817;77;1240;-66
2022/09/09 07:37:38;;;;;;;;;;;24.90;46.00;;;;;;1511027;77;790;-67
2022/09/09 07:39:40;;;;;;;;;;;24.90;46.00;;;;;;1513842;77;1936;-65
2022/09/09 07:41:43;;;;;;;;;;;24.90;46.00;;;;;;1511752;77;876;-66
2022/09/09 07:43:48;;;;;;;;;;;25.00;46.20;;;;;;1508791;77;762;-65
2022/09/09 07:45:51;;;;;;;;;;;25.00;46.50;;;;;;1511909;77;742;-68
2022/09/09 07:47:53;;;;;;;;;;;25.10;46.60;;;;;;1500865;77;1780;-68
2022/09/09 07:49:55;;;;;;;;;;;25.10;47.00;;;;;;1516373;77;832;-70
2022/09/09 07:51:57;;;;;;;;;;;25.20;46.90;;;;;;1510838;77;722;-68
2022/09/09 07:54:01;;;;;;;;;;;25.30;46.70;;;;;;1505546;77;1108;-69
2022/09/09 07:56:05;;;;;;;;;;;25.30;46.60;;;;;;1515468;77;876;-69
2022/09/09 07:58:07;;;;;;;;;;;25.10;46.60;;;;;;1515347;77;2039;-72
2022/09/09 08:00:10;;;;;;;;;;;25.10;46.70;;;;;;1509447;77;1940;-70
2022/09/09 08:02:12;;;;;;;;;;;25.10;46.80;;;;;;1514207;77;1569;-69
2022/09/09 08:04:15;;;;;;;;;;;25.10;46.80;;;;;;1521872;75;1140;-68
2022/09/09 08:06:17;;;;;;;;;;;25.10;46.80;;;;;;1515166;77;796;-69
2022/09/09 08:08:19;;;;;;;;;;;25.10;46.80;;;;;;1513350;77;776;-69
2022/09/09 08:10:21;;;;;;;;;;;25.10;46.80;;;;;;1511013;77;728;-69
2022/09/09 08:12:23;;;;;;;;;;;25.10;46.90;;;;;;1522937;77;698;-69
2022/09/09 08:14:26;;;;;;;;;;;25.10;46.90;;;;;;1520054;75;1186;-68
2022/09/09 08:16:30;;;;;;;;;;;25.10;46.80;;;;;;1521681;77;1535;-71
2022/09/09 08:18:32;;;;;;;;;;;25.10;46.80;;;;;;1523277;77;706;-69
2022/09/09 08:20:34;;;;;;;;;;;25.10;46.90;;;;;;1518189;77;1982;-68
2022/09/09 08:22:37;;;;;;;;;;;25.00;46.90;;;;;;1487894;79;1145;-68
2022/09/09 08:24:39;;;;;;;;;;;25.10;46.90;;;;;;1508915;77;1118;-68
2022/09/09 08:26:42;;;;;;;;;;;25.10;46.90;;;;;;1512092;77;805;-70
2022/09/09 08:28:44;;;;;;;;;;;25.10;47.00;;;;;;1501491;77;740;-69
2022/09/09 08:30:47;;;;;;;;;;;25.10;46.90;;;;;;1513257;77;1557;-68
2022/09/09 08:32:50;;;;;;;;;;;25.10;47.00;;;;;;1495562;77;694;-69
2022/09/09 08:34:52;;;;;;;;;;;25.10;47.00;;;;;;1515353;77;1163;-69
2022/09/09 08:36:54;;;;;;;;;;;25.10;46.90;;;;;;1508187;77;872;-69
2022/09/09 08:38:57;;;;;;;;;;;25.10;47.00;;;;;;1516451;77;1948;-68
2022/09/09 08:41:00;;;;;;;;;;;25.00;46.90;;;;;;1508556;77;735;-72
2022/09/09 08:43:02;;;;;;;;;;;25.10;46.90;;;;;;1514297;77;1950;-70
2022/09/09 08:45:24;;;;;;;;;;;25.00;47.00;;;;;;1518475;77;1191;-69
2022/09/09 08:47:38;;;;;;;;;;;25.10;46.90;;;;;;1516497;77;1403;-72
2022/09/09 08:49:50;;;;;;;;;;;25.00;47.00;;;;;;1515903;77;620;-69
2022/09/09 08:51:55;;;;;;;;;;;25.00;47.00;;;;;;1506230;77;1850;-70
2022/09/09 08:53:57;;;;;;;;;;;25.00;47.00;;;;;;1518437;77;1127;-69
2022/09/09 08:56:01;;;;;;;;;;;25.10;47.00;;;;;;1517547;77;779;-69
2022/09/09 08:58:15;;;;;;;;;;;25.10;46.90;;;;;;1514907;77;990;-69
2022/09/09 09:00:17;;;;;;;;;;;25.00;47.00;;;;;;1518218;77;1946;-69
2022/09/09 09:02:21;;;;;;;;;;;25.10;47.00;;;;;;1522793;77;729;-68
2022/09/09 09:04:39;;;;;;;;;;;25.10;47.00;;;;;;1514126;77;1939;-70
2022/09/09 09:06:52;;;;;;;;;;;25.00;46.90;;;;;;1507298;77;1937;-69
2022/09/09 09:09:01;;;;;;;;;;;25.00;46.80;;;;;;1520547;77;1859;-69
2022/09/09 09:11:03;;;;;;;;;;;25.00;47.00;;;;;;1518353;77;764;-70
2022/09/09 09:13:07;;;;;;;;;;;24.90;46.90;;;;;;1518536;77;752;-70
2022/09/09 09:15:13;;;;;;;;;;;25.00;46.90;;;;;;1513890;77;1966;-70
2022/09/09 09:17:19;;;;;;;;;;;24.90;46.80;;;;;;1500175;77;1952;-68
2022/09/09 09:19:22;;;;;;;;;;;24.90;46.90;;;;;;1520095;77;1917;-69
2022/09/09 09:21:32;;;;;;;;;;;24.90;46.80;;;;;;1514760;77;685;-68
2022/09/09 09:23:36;;;;;;;;;;;24.90;47.00;;;;;;1510118;77;2142;-71
2022/09/09 09:25:38;;;;;;;;;;;24.90;47.00;;;;;;1517521;77;1892;-66
2022/09/09 09:27:41;;;;;;;;;;;24.90;46.90;;;;;;1528292;77;772;-67
2022/09/09 09:29:43;;;;;;;;;;;24.80;46.90;;;;;;1510710;77;765;-67
2022/09/09 09:31:47;;;;;;;;;;;24.80;46.80;;;;;;1510288;77;614;-66
2022/09/09 09:33:50;;;;;;;;;;;24.80;46.90;;;;;;1500974;77;1506;-65
2022/09/09 09:35:53;;;;;;;;;;;24.80;46.90;;;;;;1508255;77;716;-66
2022/09/09 09:37:55;;;;;;;;;;;24.80;46.90;;;;;;1515281;77;766;-66
2022/09/09 09:39:57;;;;;;;;;;;24.80;46.90;;;;;;1511175;77;1962;-66
2022/09/09 09:42:01;;;;;;;;;;;24.70;46.90;;;;;;1513068;77;774;-65
2022/09/09 09:44:02;;;;;;;;;;;24.70;46.90;;;;;;1490941;78;1662;-67
2022/09/09 09:46:04;;;;;;;;;;;24.80;46.90;;;;;;1513073;77;733;-66
2022/09/09 09:48:07;;;;;;;;;;;24.80;46.90;;;;;;1516795;77;677;-66
2022/09/09 09:50:19;;;;;;;;;;;24.80;47.00;;;;;;1506084;77;728;-67
2022/09/09 09:52:23;;;;;;;;;;;24.80;47.00;;;;;;1500918;77;773;-68
2022/09/09 09:54:28;;;;;;;;;;;24.70;47.00;;;;;;1506880;77;1122;-67
2022/09/09 09:56:32;;;;;;;;;;;24.80;47.00;;;;;;1502511;77;757;-67
2022/09/09 09:58:48;;;;;;;;;;;24.70;47.00;;;;;;1497511;77;819;-67
2022/09/09 10:00:51;;;;;;;;;;;24.70;47.10;;;;;;1499823;77;1922;-69
2022/09/09 10:02:53;;;;;;;;;;;24.70;47.00;;;;;;1505798;77;767;-68
2022/09/09 10:05:02;;;;;;;;;;;24.70;47.00;;;;;;1498191;77;1188;-66
2022/09/09 10:07:06;;;;;;;;;;;24.60;46.90;;;;;;1504516;77;1832;-67
2022/09/09 10:09:21;;;;;;;;;;;24.60;46.90;;;;;;1502966;77;1821;-70
2022/09/09 10:11:27;;;;;;;;;;;24.70;47.10;;;;;;1510743;77;772;-67
2022/09/09 10:13:46;;;;;;;;;;;24.70;47.10;;;;;;1515539;77;697;-65
2022/09/09 10:15:52;;;;;;;;;;;24.70;47.10;;;;;;1513499;77;1595;-67
2022/09/09 10:18:05;;;;;;;;;;;24.60;46.90;;;;;;1515872;77;712;-69
2022/09/09 10:20:19;;;;;;;;;;;24.70;47.00;;;;;;1510745;77;1945;-69
2022/09/09 10:22:30;;;;;;;;;;;24.60;46.90;;;;;;1513078;77;829;-69
2022/09/09 10:24:50;;;;;;;;;;;24.60;46.90;;;;;;1511818;77;1157;-68
2022/09/09 10:27:11;;;;;;;;;;;24.60;46.90;;;;;;1519660;77;680;-68
2022/09/09 10:29:16;;;;;;;;;;;24.60;46.90;;;;;;1513658;77;718;-68
2022/09/09 10:31:20;;;;;;;;;;;24.70;47.00;;;;;;1516193;77;680;-69
2022/09/09 10:33:29;;;;;;;;;;;24.60;46.90;;;;;;1507562;77;708;-68
2022/09/09 10:35:36;;;;;;;;;;;24.60;46.90;;;;;;1511050;77;1130;-68
2022/09/09 10:37:42;;;;;;;;;;;24.60;46.80;;;;;;1514155;77;671;-69
2022/09/09 10:39:43;;;;;;;;;;;24.60;46.80;;;;;;1518172;77;1926;-69
2022/09/09 10:41:47;;;;;;;;;;;24.60;46.80;;;;;;1518223;77;752;-69
2022/09/09 10:43:57;;;;;;;;;;;24.60;46.80;;;;;;1513882;77;1876;-69
2022/09/09 10:46:04;;;;;;;;;;;24.60;46.80;;;;;;1521434;77;786;-69
2022/09/09 10:48:07;;;;;;;;;;;24.60;46.80;;;;;;1507220;77;777;-68
2022/09/09 10:50:14;;;;;;;;;;;24.60;46.80;;;;;;1517921;77;723;-69
2022/09/09 10:52:20;;;;;;;;;;;24.60;46.80;;;;;;1508155;77;2020;-68
2022/09/09 10:54:41;;;;;;;;;;;24.60;46.80;;;;;;1507635;74;224092;-60
2022/09/09 10:56:44;;;;;;;;;;;24.60;46.80;;;;;;1542398;75;730;-66
2022/09/09 10:58:49;;;;;;;;;;;24.60;46.70;;;;;;1538196;75;750;-66
2022/09/09 11:00:53;;;;;;;;;;;24.60;46.70;;;;;;1558103;75;1932;-65
2022/09/09 11:02:59;;;;;;;;;;;24.60;46.60;;;;;;1535317;75;1559;-65
2022/09/09 11:05:03;;;;;;;;;;;24.60;46.60;;;;;;1542326;75;1195;-65
2022/09/09 11:07:06;;;;;;;;;;;24.60;46.60;;;;;;1528778;76;741;-65
2022/09/09 11:09:10;;;;;;;;;;;24.60;46.60;;;;;;1526762;77;734;-65
2022/09/09 11:11:17;;;;;;;;;;;24.60;46.60;;;;;;1524120;77;772;-65
2022/09/09 11:13:21;;;;;;;;;;;24.60;46.50;;;;;;1526018;77;902;-65
2022/09/09 11:15:34;;;;;;;;;;;24.70;46.60;;;;;;1506675;76;1717;-65
2022/09/09 11:17:54;;;;;;;;;;;24.70;46.60;;;;;;1531850;77;2211;-65
2022/09/09 11:19:57;;;;;;;;;;;24.60;46.30;;;;;;1532272;76;1921;-65
2022/09/09 11:21:59;;;;;;;;;;;24.60;46.30;;;;;;1528402;77;731;-65
2022/09/09 11:24:02;;;;;;;;;;;24.60;46.40;;;;;;1524437;76;755;-65
2022/09/09 11:26:04;;;;;;;;;;;24.70;46.50;;;;;;1519920;77;1148;-65
2022/09/09 11:28:23;;;;;;;;;;;24.70;46.50;;;;;;1520316;77;729;-65
2022/09/09 11:30:26;;;;;;;;;;;24.70;46.40;;;;;;1525402;76;740;-65
2022/09/09 11:32:36;;;;;;;;;;;24.70;46.30;;;;;;1518640;77;1783;-65
2022/09/09 11:34:56;;;;;;;;;;;24.60;46.20;;;;;;1519470;76;1186;-65
2022/09/09 11:37:00;;;;;;;;;;;24.60;46.10;;;;;;1524138;76;762;-65
2022/09/09 11:39:15;;;;;;;;;;;24.60;46.20;;;;;;1525806;77;1958;-66
2022/09/09 11:41:17;;;;;;;;;;;24.60;46.40;;;;;;1519363;77;1930;-64
2022/09/09 11:43:21;;;;;;;;;;;24.70;46.30;;;;;;1521300;76;858;-64
2022/09/09 11:45:28;;;;;;;;;;;24.60;46.20;;;;;;1520956;76;1198;-65
2022/09/09 11:47:31;;;;;;;;;;;24.70;46.30;;;;;;1517332;77;712;-65
2022/09/09 11:49:41;;;;;;;;;;;24.70;46.40;;;;;;1523962;77;751;-65
2022/09/09 11:51:43;;;;;;;;;;;24.60;46.00;;;;;;1523420;77;883;-64
2022/09/09 11:53:49;;;;;;;;;;;24.60;46.20;;;;;;1511751;76;759;-64
2022/09/09 11:56:03;;;;;;;;;;;24.60;46.20;;;;;;1519653;76;1066;-64
2022/09/09 11:58:07;;;;;;;;;;;24.60;46.20;;;;;;1493675;77;1302;-65
2022/09/09 12:00:11;;;;;;;;;;;24.60;45.70;;;;;;1518707;77;1912;-65
2022/09/09 12:02:14;;;;;;;;;;;24.60;46.00;;;;;;1515842;76;1179;-65
2022/09/09 12:04:18;;;;;;;;;;;24.60;45.80;;;;;;1525666;76;781;-65
2022/09/09 12:06:26;;;;;;;;;;;24.60;45.80;;;;;;1514197;76;1817;-65
2022/09/09 12:08:29;;;;;;;;;;;24.60;45.70;;;;;;1517281;77;704;-65
2022/09/09 12:10:35;;;;;;;;;;;24.60;45.70;;;;;;1512688;77;785;-65
2022/09/09 12:12:38;;;;;;;;;;;24.60;45.70;;;;;;1519670;77;707;-65
2022/09/09 12:14:41;;;;;;;;;;;24.50;45.60;;;;;;1520962;76;1145;-65
2022/09/09 12:16:43;;;;;;;;;;;24.50;45.60;;;;;;1521564;76;733;-65
2022/09/09 12:18:45;;;;;;;;;;;24.50;45.60;;;;;;1520534;77;860;-65